createdAt,value
2023-04-21T00:01:46.151Z,31.00
2023-04-21T00:04:13.747Z,31.20
2023-04-21T00:06:41.598Z,31.42
2023-04-21T00:09:07.983Z,31.92
2023-04-21T00:11:34.408Z,32.67
2023-04-21T00:14:00.825Z,30.60
2023-04-21T00:16:27.359Z,31.25
2023-04-21T00:18:53.774Z,30.38
2023-04-21T00:21:20.144Z,29.83
2023-04-21T00:23:47.371Z,31.00
2023-04-21T00:26:13.790Z,29.50
2023-04-21T00:28:43.279Z,30.80
2023-04-21T00:31:09.709Z,28.40
2023-04-21T00:33:36.162Z,122.75
2023-04-21T00:36:02.528Z,207.15
2023-04-21T00:38:28.914Z,49.03
2023-04-21T00:40:55.505Z,29.40
2023-04-21T00:43:22.018Z,29.40
2023-04-21T00:45:48.432Z,29.02
2023-04-21T00:48:14.875Z,30.05
2023-04-21T00:50:41.352Z,29.52
2023-04-21T00:53:07.730Z,28.90
2023-04-21T00:55:34.134Z,29.23
2023-04-21T00:58:02.375Z,28.02
2023-04-21T01:00:29.145Z,28.85
2023-04-21T01:02:56.445Z,28.20
2023-04-21T01:05:23.028Z,31.60
2023-04-21T01:07:49.394Z,29.70
2023-04-21T01:10:15.790Z,29.48
2023-04-21T01:12:42.167Z,28.88
2023-04-21T01:15:08.533Z,28.02
2023-04-21T01:17:38.854Z,28.73
2023-04-21T01:20:06.216Z,29.13
2023-04-21T01:22:33.706Z,29.52
2023-04-21T01:25:00.110Z,29.30
2023-04-21T01:27:26.942Z,28.23
2023-04-21T01:29:53.756Z,29.33
2023-04-21T01:32:20.295Z,29.67
2023-04-21T01:34:46.856Z,29.40
2023-04-21T01:37:13.355Z,28.25
2023-04-21T01:39:39.968Z,28.88
2023-04-21T01:42:06.380Z,28.85
2023-04-21T01:44:32.777Z,30.50
2023-04-21T01:46:59.105Z,30.52
2023-04-21T01:49:25.518Z,30.73
2023-04-21T01:51:51.887Z,30.20
2023-04-21T01:54:19.403Z,31.38
2023-04-21T01:56:45.850Z,31.50
2023-04-21T01:59:12.355Z,31.45
2023-04-21T02:01:38.789Z,31.45
2023-04-21T02:04:05.525Z,32.30
2023-04-21T02:06:32.152Z,31.02
2023-04-21T02:08:59.012Z,30.85
2023-04-21T02:11:27.733Z,31.20
2023-04-21T02:13:54.206Z,31.25
2023-04-21T02:16:20.823Z,29.38
2023-04-21T02:18:48.389Z,30.55
2023-04-21T02:21:15.600Z,32.83
2023-04-21T02:23:41.983Z,30.42
2023-04-21T02:26:08.342Z,32.00
2023-04-21T02:28:34.784Z,33.03
2023-04-21T02:31:01.170Z,33.00
2023-04-21T02:33:27.635Z,32.83
2023-04-21T02:35:54.034Z,33.22
2023-04-21T02:38:20.437Z,33.75
2023-04-21T02:40:46.776Z,33.00
2023-04-21T02:43:13.289Z,32.72
2023-04-21T02:45:39.655Z,32.38
2023-04-21T02:48:06.102Z,32.97
2023-04-21T02:50:32.554Z,33.97
2023-04-21T02:52:58.913Z,32.15
2023-04-21T02:55:25.256Z,32.83
2023-04-21T02:57:51.656Z,32.28
2023-04-21T03:00:18.033Z,31.58
2023-04-21T03:02:44.857Z,33.63
2023-04-21T03:05:12.555Z,32.20
2023-04-21T03:07:38.937Z,32.53
2023-04-21T03:10:06.334Z,33.30
2023-04-21T03:12:32.717Z,32.60
2023-04-21T03:14:59.127Z,31.45
2023-04-21T03:17:25.565Z,31.73
2023-04-21T03:19:52.050Z,32.95
2023-04-21T03:22:18.486Z,31.35
2023-04-21T03:24:44.838Z,32.22
2023-04-21T03:27:11.348Z,31.23
2023-04-21T03:29:37.971Z,32.38
2023-04-21T03:32:04.439Z,32.05
2023-04-21T03:34:30.956Z,31.15
2023-04-21T03:36:59.507Z,31.55
2023-04-21T03:39:26.171Z,31.48
2023-04-21T03:41:53.339Z,31.10
2023-04-21T03:44:19.750Z,29.83
2023-04-21T03:46:46.121Z,30.08
2023-04-21T03:49:12.619Z,29.27
2023-04-21T03:51:38.976Z,29.15
2023-04-21T03:54:05.372Z,29.75
2023-04-21T03:56:31.817Z,31.02
2023-04-21T03:58:58.202Z,30.20
2023-04-21T04:01:24.604Z,30.58
2023-04-21T04:03:51.206Z,29.52
2023-04-21T04:06:17.750Z,29.95
2023-04-21T04:08:44.103Z,30.70
2023-04-21T04:11:10.444Z,29.63
2023-04-21T04:13:36.856Z,28.67
2023-04-21T04:16:03.318Z,30.23
2023-04-21T04:18:29.738Z,30.65
2023-04-21T04:20:56.062Z,29.92
2023-04-21T04:23:22.419Z,29.88
2023-04-21T04:25:49.293Z,28.80
2023-04-21T04:28:16.064Z,28.95
2023-04-21T04:30:42.709Z,30.13
2023-04-21T04:33:10.118Z,30.00
2023-04-21T04:35:36.659Z,29.10
2023-04-21T04:38:04.310Z,31.20
2023-04-21T04:40:30.763Z,30.08
2023-04-21T04:42:57.226Z,30.45
2023-04-21T04:45:23.646Z,30.17
2023-04-21T04:47:50.149Z,30.33
2023-04-21T04:50:16.584Z,29.77
2023-04-21T04:52:46.753Z,31.85
2023-04-21T04:55:13.332Z,29.13
2023-04-21T04:57:39.814Z,30.58
2023-04-21T05:00:07.287Z,31.48
2023-04-21T05:02:33.806Z,29.50
2023-04-21T05:05:00.396Z,30.33
2023-04-21T05:07:26.807Z,30.30
2023-04-21T05:09:53.203Z,29.70
2023-04-21T05:12:19.580Z,30.95
2023-04-21T05:14:45.923Z,31.63
2023-04-21T05:17:12.289Z,28.55
2023-04-21T05:19:38.590Z,27.88
2023-04-21T05:22:06.593Z,28.63
2023-04-21T05:24:33.017Z,28.40
2023-04-21T05:26:59.529Z,29.52
2023-04-21T05:29:25.902Z,30.25
2023-04-21T05:31:52.292Z,29.90
2023-04-21T05:34:19.081Z,29.52
2023-04-21T05:36:45.727Z,29.15
2023-04-21T05:39:12.117Z,28.95
2023-04-21T05:41:38.514Z,29.70
2023-04-21T05:44:05.012Z,29.92
2023-04-21T05:46:31.556Z,30.10
2023-04-21T05:48:58.056Z,30.38
2023-04-21T05:51:24.515Z,29.27
2023-04-21T05:53:50.888Z,30.05
2023-04-21T05:56:17.232Z,28.50
2023-04-21T05:58:43.689Z,30.77
2023-04-21T06:01:10.285Z,29.35
2023-04-21T06:03:36.840Z,28.45
2023-04-21T06:06:03.472Z,27.63
2023-04-21T06:08:29.854Z,28.83
2023-04-21T06:10:56.354Z,27.52
2023-04-21T06:13:22.772Z,28.30
2023-04-21T06:15:49.129Z,26.73
2023-04-21T06:18:16.270Z,26.48
2023-04-21T06:20:42.778Z,27.52
2023-04-21T06:23:09.634Z,27.83
2023-04-21T06:25:36.391Z,28.27
2023-04-21T06:28:02.845Z,26.48
2023-04-21T06:30:29.202Z,26.65
2023-04-21T06:32:55.603Z,26.45
2023-04-21T06:35:22.110Z,28.55
2023-04-21T06:37:48.502Z,27.52
2023-04-21T06:40:16.343Z,26.98
2023-04-21T06:42:42.904Z,27.65
2023-04-21T06:45:09.644Z,28.23
2023-04-21T06:47:36.178Z,27.42
2023-04-21T06:50:02.585Z,26.13
2023-04-21T06:52:28.921Z,27.45
2023-04-21T06:54:55.502Z,26.90
2023-04-21T06:57:21.843Z,26.75
2023-04-21T06:59:48.274Z,27.83
2023-04-21T07:02:14.722Z,26.70
2023-04-21T07:04:41.257Z,26.75
2023-04-21T07:07:07.697Z,24.83
2023-04-21T07:09:34.099Z,25.35
2023-04-21T07:12:01.042Z,25.35
2023-04-21T07:14:27.420Z,25.02
2023-04-21T07:16:55.011Z,25.38
2023-04-21T07:19:21.544Z,24.27
2023-04-21T07:21:48.033Z,24.92
2023-04-21T07:24:14.472Z,23.75
2023-04-21T07:26:40.850Z,24.13
2023-04-21T07:29:07.227Z,23.35
2023-04-21T07:31:33.867Z,24.10
2023-04-21T07:34:00.645Z,23.80
2023-04-21T07:36:29.766Z,23.08
2023-04-21T07:38:57.509Z,23.38
2023-04-21T07:41:23.859Z,22.02
2023-04-21T07:43:52.501Z,22.20
2023-04-21T07:46:20.377Z,22.02
2023-04-21T07:48:46.827Z,20.65
2023-04-21T07:51:13.185Z,21.25
2023-04-21T07:53:39.622Z,20.02
2023-04-21T07:56:07.397Z,19.10
2023-04-21T07:58:33.796Z,20.40
2023-04-21T08:01:00.198Z,17.95
2023-04-21T08:03:27.162Z,19.45
2023-04-21T08:05:54.144Z,19.88
2023-04-21T08:08:21.943Z,20.00
2023-04-21T08:10:48.450Z,19.27
2023-04-21T08:13:14.867Z,19.75
2023-04-21T08:15:41.768Z,20.60
2023-04-21T08:18:08.172Z,20.90
2023-04-21T08:20:34.615Z,22.98
2023-04-21T08:23:01.133Z,21.95
2023-04-21T08:25:27.560Z,23.52
2023-04-21T08:27:54.000Z,23.40
2023-04-21T08:30:20.357Z,23.50
2023-04-21T08:32:46.837Z,24.10
2023-04-21T08:35:13.328Z,24.60
2023-04-21T08:37:40.082Z,24.13
2023-04-21T08:40:06.481Z,22.35
2023-04-21T08:42:32.866Z,22.88
2023-04-21T08:44:59.245Z,23.25
2023-04-21T08:47:25.742Z,22.17
2023-04-21T08:49:52.175Z,23.00
2023-04-21T08:52:18.553Z,23.35
2023-04-21T08:54:44.959Z,24.25
2023-04-21T08:57:15.890Z,23.35
2023-04-21T08:59:42.612Z,23.42
2023-04-21T09:02:10.040Z,23.08
2023-04-21T09:04:36.741Z,23.90
2023-04-21T09:07:03.319Z,24.30
2023-04-21T09:09:31.380Z,23.30
2023-04-21T09:11:58.443Z,21.85
2023-04-21T09:14:24.799Z,21.42
2023-04-21T09:16:51.307Z,21.70
2023-04-21T09:19:17.955Z,22.88
2023-04-21T09:21:44.540Z,23.05
2023-04-21T09:24:13.063Z,21.38
2023-04-21T09:26:39.462Z,22.95
2023-04-21T09:29:05.999Z,24.55
2023-04-21T09:31:32.366Z,22.95
2023-04-21T09:34:01.214Z,22.58
2023-04-21T09:36:28.319Z,23.67
2023-04-21T09:39:15.266Z,22.77
2023-04-21T09:41:41.283Z,21.00
2023-04-21T09:44:08.229Z,19.85
2023-04-21T09:46:34.704Z,20.38
2023-04-21T09:49:01.457Z,21.35
2023-04-21T09:51:42.745Z,21.50
2023-04-21T09:54:28.191Z,21.15
2023-04-21T09:56:56.417Z,21.00
2023-04-21T09:59:23.705Z,20.35
2023-04-21T10:01:51.115Z,22.17
2023-04-21T10:04:17.966Z,19.88
2023-04-21T10:06:44.750Z,21.23
2023-04-21T10:09:11.089Z,21.92
2023-04-21T10:11:37.524Z,19.60
2023-04-21T10:14:03.883Z,21.60
2023-04-21T10:16:30.432Z,20.95
2023-04-21T10:18:56.810Z,20.17
2023-04-21T10:21:24.350Z,19.90
2023-04-21T10:23:52.443Z,69.32
2023-04-21T10:26:18.827Z,99.60
2023-04-21T10:28:45.282Z,21.23
2023-04-21T10:31:11.656Z,20.80
2023-04-21T10:33:38.067Z,20.48
2023-04-21T10:36:05.478Z,21.50
2023-04-21T10:38:31.817Z,21.02
2023-04-21T10:40:58.194Z,21.27
2023-04-21T10:43:24.577Z,21.35
2023-04-21T10:45:50.921Z,20.65
2023-04-21T10:48:17.306Z,19.30
2023-04-21T10:50:45.316Z,21.17
2023-04-21T10:53:11.824Z,21.27
2023-04-21T10:55:38.272Z,20.33
2023-04-21T10:58:04.717Z,20.73
2023-04-21T11:00:31.505Z,20.88
2023-04-21T11:02:58.335Z,20.10
2023-04-21T11:05:24.876Z,20.00
2023-04-21T11:07:51.381Z,22.15
2023-04-21T11:10:17.758Z,20.40
2023-04-21T11:12:44.147Z,20.20
2023-04-21T11:15:10.523Z,20.58
2023-04-21T11:17:38.277Z,20.65
2023-04-21T11:20:04.807Z,20.60
2023-04-21T11:22:31.198Z,20.45
2023-04-21T11:24:57.797Z,20.77
2023-04-21T11:27:24.240Z,21.15
2023-04-21T11:29:50.676Z,21.52
2023-04-21T11:32:17.148Z,22.13
2023-04-21T11:34:43.549Z,19.77
2023-04-21T11:37:10.005Z,20.33
2023-04-21T11:39:36.408Z,20.05
2023-04-21T11:42:03.030Z,20.20
2023-04-21T11:44:29.367Z,20.88
2023-04-21T11:46:55.730Z,21.42
2023-04-21T11:49:22.058Z,21.23
2023-04-21T11:51:48.448Z,21.08
2023-04-21T11:54:14.799Z,21.23
2023-04-21T11:56:41.137Z,20.55
2023-04-21T11:59:07.698Z,21.08
2023-04-21T12:01:34.104Z,20.73
2023-04-21T12:04:01.421Z,21.08
2023-04-21T12:06:31.404Z,21.80
2023-04-21T12:08:57.887Z,20.58
2023-04-21T12:11:24.346Z,21.15
2023-04-21T12:13:50.779Z,19.35
2023-04-21T12:16:17.202Z,21.33
2023-04-21T12:18:44.118Z,20.73
2023-04-21T12:21:10.606Z,20.42
2023-04-21T12:23:39.090Z,21.48
2023-04-21T12:26:05.599Z,19.88
2023-04-21T12:28:31.926Z,20.27
2023-04-21T12:30:58.344Z,18.67
2023-04-21T12:33:24.802Z,17.88
2023-04-21T12:35:51.410Z,19.38
2023-04-21T12:38:17.750Z,17.20
2023-04-21T12:40:44.116Z,17.98
2023-04-21T12:43:10.511Z,17.23
2023-04-21T12:45:37.055Z,18.45
2023-04-21T12:48:05.013Z,17.50
2023-04-21T12:50:31.427Z,17.67
2023-04-21T12:52:57.828Z,16.42
2023-04-21T12:55:24.287Z,17.15
2023-04-21T12:57:50.939Z,16.52
2023-04-21T13:00:17.292Z,16.75
2023-04-21T13:02:43.813Z,15.27
2023-04-21T13:05:11.964Z,14.80
2023-04-21T13:07:38.408Z,13.18
2023-04-21T13:10:06.382Z,12.70
2023-04-21T13:12:32.806Z,12.40
2023-04-21T13:14:59.158Z,12.52
2023-04-21T13:17:25.633Z,12.25
2023-04-21T13:19:52.433Z,12.45
2023-04-21T13:22:18.850Z,12.25
2023-04-21T13:24:45.479Z,12.85
2023-04-21T13:27:11.898Z,11.68
2023-04-21T13:29:38.273Z,11.52
2023-04-21T13:32:04.745Z,10.73
2023-04-21T13:34:31.311Z,9.68
2023-04-21T13:36:57.854Z,9.00
2023-04-21T13:39:24.439Z,10.45
2023-04-21T13:41:53.560Z,11.27
2023-04-21T13:44:21.601Z,12.75
2023-04-21T13:46:48.204Z,12.05
2023-04-21T13:49:14.675Z,12.27
2023-04-21T13:51:41.127Z,11.73
2023-04-21T13:54:07.488Z,11.18
2023-04-21T13:56:33.894Z,11.65
2023-04-21T13:59:00.323Z,11.02
2023-04-21T14:01:26.794Z,10.13
2023-04-21T14:03:54.050Z,10.70
2023-04-21T14:06:20.770Z,10.43
2023-04-21T14:08:47.134Z,9.85
2023-04-21T14:11:13.489Z,9.38
2023-04-21T14:13:51.983Z,9.45
2023-04-21T14:16:26.478Z,9.50
2023-04-21T14:18:53.016Z,10.10
2023-04-21T14:21:19.402Z,9.20
2023-04-21T14:23:45.804Z,8.00
2023-04-21T14:26:12.329Z,8.05
2023-04-21T14:28:38.703Z,7.50
2023-04-21T14:31:05.098Z,8.75
2023-04-21T14:33:33.342Z,8.90
2023-04-21T14:35:59.824Z,9.52
2023-04-21T14:38:26.194Z,9.23
2023-04-21T14:40:54.570Z,9.23
2023-04-21T14:43:21.027Z,9.18
2023-04-21T14:45:47.453Z,7.55
2023-04-21T14:48:14.319Z,7.32
2023-04-21T14:50:40.860Z,7.97
2023-04-21T14:53:07.284Z,7.65
2023-04-21T14:55:33.770Z,6.10
2023-04-21T14:58:00.258Z,5.97
2023-04-21T15:00:27.642Z,5.88
2023-04-21T15:02:54.122Z,5.82
2023-04-21T15:05:21.013Z,5.28
2023-04-21T15:07:47.418Z,5.70
2023-04-21T15:10:13.924Z,5.38
2023-04-21T15:12:41.748Z,5.07
2023-04-21T15:15:08.242Z,5.80
2023-04-21T15:17:34.613Z,6.43
2023-04-21T15:20:01.021Z,5.75
2023-04-21T15:22:27.451Z,5.50
2023-04-21T15:24:54.657Z,5.65
2023-04-21T15:27:21.704Z,6.60
2023-04-21T15:29:48.149Z,5.38
2023-04-21T15:32:14.559Z,5.95
2023-04-21T15:34:40.992Z,6.00
2023-04-21T15:37:07.327Z,5.47
2023-04-21T15:39:36.888Z,5.80
2023-04-21T15:42:05.591Z,6.20
2023-04-21T15:44:34.933Z,5.85
2023-04-21T15:47:01.892Z,6.32
2023-04-21T15:49:28.471Z,5.28
2023-04-21T15:51:54.886Z,5.18
2023-04-21T15:54:21.261Z,5.32
2023-04-21T15:56:47.616Z,4.68
2023-04-21T15:59:13.998Z,5.50
2023-04-21T16:01:40.514Z,5.38
2023-04-21T16:04:07.127Z,5.45
2023-04-21T16:06:33.778Z,5.47
2023-04-21T16:09:00.323Z,5.03
2023-04-21T16:11:28.021Z,5.50
2023-04-21T16:13:54.453Z,5.40
2023-04-21T16:16:20.933Z,6.28
2023-04-21T16:18:47.325Z,6.05
2023-04-21T16:21:13.681Z,5.20
2023-04-21T16:23:40.382Z,4.88
2023-04-21T16:26:08.839Z,4.82
2023-04-21T16:28:35.550Z,5.05
2023-04-21T16:31:01.940Z,4.93
2023-04-21T16:33:28.401Z,5.05
2023-04-21T16:35:56.085Z,5.10
2023-04-21T16:38:23.823Z,4.70
2023-04-21T16:40:50.396Z,5.20
2023-04-21T16:43:16.781Z,4.72
2023-04-21T16:45:43.337Z,5.22
2023-04-21T16:48:09.879Z,5.40
2023-04-21T16:50:36.375Z,6.13
2023-04-21T16:53:02.788Z,5.68
2023-04-21T16:55:29.310Z,10.52
2023-04-21T16:57:56.063Z,6.13
2023-04-21T17:00:22.620Z,4.90
2023-04-21T17:02:49.160Z,5.60
2023-04-21T17:05:16.621Z,4.97
2023-04-21T17:07:44.545Z,4.82
2023-04-21T17:10:10.919Z,3.20
2023-04-21T17:12:37.591Z,2.65
2023-04-21T17:15:05.138Z,3.05
2023-04-21T17:17:31.536Z,3.13
2023-04-21T17:19:58.108Z,2.97
2023-04-21T17:22:24.496Z,2.65
2023-04-21T17:24:53.651Z,2.63
2023-04-21T17:27:20.843Z,2.53
2023-04-21T17:29:47.279Z,2.33
2023-04-21T17:32:14.304Z,2.42
2023-04-21T17:34:40.976Z,3.03
2023-04-21T17:37:07.452Z,3.22
2023-04-21T17:39:34.021Z,2.40
2023-04-21T17:42:01.896Z,2.17
2023-04-21T17:44:28.267Z,2.55
2023-04-21T17:46:54.630Z,2.38
2023-04-21T17:49:22.949Z,2.83
2023-04-21T17:51:49.290Z,2.92
2023-04-21T17:54:16.939Z,2.72
2023-04-21T17:56:43.383Z,3.15
2023-04-21T17:59:09.815Z,2.53
2023-04-21T18:01:36.293Z,2.83
2023-04-21T18:04:02.857Z,4.07
2023-04-21T18:06:29.467Z,2.78
2023-04-21T18:08:55.981Z,3.10
2023-04-21T18:11:22.572Z,3.47
2023-04-21T18:13:48.974Z,2.75
2023-04-21T18:16:15.469Z,3.30
2023-04-21T18:18:41.844Z,2.80
2023-04-21T18:21:08.278Z,2.72
2023-04-21T18:23:34.780Z,2.45
2023-04-21T18:26:01.997Z,2.63
2023-04-21T18:28:29.524Z,4.15
2023-04-21T18:30:55.869Z,3.70
2023-04-21T18:33:22.250Z,2.85
2023-04-21T18:35:48.783Z,2.92
2023-04-21T18:38:15.444Z,3.15
2023-04-21T18:40:41.863Z,4.10
2023-04-21T18:43:08.325Z,4.57
2023-04-21T18:45:34.712Z,4.78
2023-04-21T18:48:01.114Z,4.43
2023-04-21T18:50:27.577Z,4.50
2023-04-21T18:52:54.819Z,3.83
2023-04-21T18:55:21.326Z,3.60
2023-04-21T18:57:47.795Z,3.28
2023-04-21T19:00:14.251Z,3.90
2023-04-21T19:02:41.177Z,3.67
2023-04-21T19:05:07.721Z,3.65
2023-04-21T19:07:37.260Z,4.50
2023-04-21T19:10:03.732Z,3.30
2023-04-21T19:12:30.067Z,4.20
2023-04-21T19:14:56.690Z,3.35
2023-04-21T19:17:23.215Z,3.63
2023-04-21T19:19:50.997Z,3.65
2023-04-21T19:22:17.484Z,3.67
2023-04-21T19:24:43.878Z,3.47
2023-04-21T19:27:10.512Z,3.70
2023-04-21T19:29:37.053Z,3.80
2023-04-21T19:32:03.636Z,4.07
2023-04-21T19:34:30.311Z,5.75
2023-04-21T19:36:56.745Z,3.40
2023-04-21T19:39:23.241Z,3.50
2023-04-21T19:41:49.646Z,3.10
2023-04-21T19:44:16.046Z,2.50
2023-04-21T19:46:43.107Z,2.60
2023-04-21T19:49:12.879Z,1.92
2023-04-21T19:51:39.979Z,2.15
2023-04-21T19:54:11.564Z,2.08
2023-04-21T19:56:38.626Z,2.00
2023-04-21T19:59:05.638Z,2.33
2023-04-21T20:01:32.514Z,1.98
2023-04-21T20:03:59.843Z,2.30
2023-04-21T20:06:26.839Z,2.33
2023-04-21T20:08:53.216Z,2.40
2023-04-21T20:11:19.644Z,2.33
2023-04-21T20:13:46.152Z,2.13
2023-04-21T20:16:12.712Z,2.50
2023-04-21T20:18:39.107Z,2.80
2023-04-21T20:21:06.383Z,2.80
2023-04-21T20:23:32.760Z,2.85
2023-04-21T20:25:59.220Z,2.45
2023-04-21T20:28:27.596Z,2.60
2023-04-21T20:30:56.174Z,2.45
2023-04-21T20:33:22.676Z,2.67
2023-04-21T20:35:49.595Z,2.17
2023-04-21T20:38:16.381Z,2.33
2023-04-21T20:40:42.933Z,2.35
2023-04-21T20:43:10.081Z,2.47
2023-04-21T20:45:36.492Z,2.42
2023-04-21T20:48:02.894Z,3.00
2023-04-21T20:50:29.283Z,2.45
2023-04-21T20:52:56.714Z,2.50
2023-04-21T20:55:23.065Z,2.45
2023-04-21T20:57:49.659Z,2.70
2023-04-21T21:00:16.167Z,2.50
2023-04-21T21:02:42.773Z,2.83
2023-04-21T21:05:09.297Z,2.90
2023-04-21T21:07:35.795Z,2.92
2023-04-21T21:10:03.523Z,3.33
2023-04-21T21:12:29.896Z,4.00
2023-04-21T21:14:56.380Z,3.33
2023-04-21T21:17:22.847Z,3.85
2023-04-21T21:19:49.496Z,3.65
2023-04-21T21:22:16.034Z,3.92
2023-04-21T21:24:43.025Z,4.47
2023-04-21T21:27:09.417Z,4.43
2023-04-21T21:29:36.043Z,4.72
2023-04-21T21:32:03.086Z,4.32
2023-04-21T21:34:29.838Z,5.30
2023-04-21T21:36:56.249Z,4.80
2023-04-21T21:39:22.610Z,3.90
2023-04-21T21:41:49.117Z,3.90
2023-04-21T21:44:15.524Z,3.75
2023-04-21T21:46:42.015Z,6.97
2023-04-21T21:49:08.420Z,5.05
2023-04-21T21:51:34.778Z,4.55
2023-04-21T21:54:01.358Z,4.03
2023-04-21T21:56:27.827Z,4.53
2023-04-21T21:58:54.426Z,4.07
2023-04-21T22:01:20.941Z,4.00
2023-04-21T22:03:47.524Z,3.88
2023-04-21T22:06:15.586Z,4.47
2023-04-21T22:08:43.717Z,4.15
2023-04-21T22:11:10.213Z,4.20
2023-04-21T22:13:36.653Z,4.47
2023-04-21T22:16:03.087Z,4.70
2023-04-21T22:18:30.121Z,4.43
2023-04-21T22:20:56.512Z,4.28
2023-04-21T22:23:22.938Z,4.80
2023-04-21T22:25:49.328Z,5.38
2023-04-21T22:28:15.717Z,5.22
2023-04-21T22:30:42.033Z,12.32
2023-04-21T22:33:08.509Z,27.35
2023-04-21T22:35:34.960Z,9.88
2023-04-21T22:38:01.644Z,15.88
2023-04-21T22:40:28.182Z,6.65
2023-04-21T22:42:54.760Z,5.95
2023-04-21T22:45:21.160Z,6.20
2023-04-21T22:47:49.181Z,5.85
2023-04-21T22:50:15.973Z,5.93
2023-04-21T22:52:42.387Z,7.18
2023-04-21T22:55:09.208Z,6.90
2023-04-21T22:57:37.413Z,6.93
2023-04-21T23:00:03.822Z,6.25
2023-04-21T23:02:30.455Z,6.57
2023-04-21T23:04:56.977Z,6.53
2023-04-21T23:07:23.522Z,6.95
2023-04-21T23:09:50.075Z,7.05
2023-04-21T23:12:16.474Z,6.82
2023-04-21T23:14:42.856Z,7.00
2023-04-21T23:17:09.286Z,7.25
2023-04-21T23:19:35.841Z,7.10
2023-04-21T23:22:02.301Z,7.53
2023-04-21T23:24:28.700Z,7.70
2023-04-21T23:26:55.182Z,7.68
2023-04-21T23:29:21.711Z,7.40
2023-04-21T23:31:48.136Z,7.70
2023-04-21T23:34:15.315Z,8.13
2023-04-21T23:36:41.856Z,8.48
2023-04-21T23:39:08.283Z,8.65
2023-04-21T23:41:34.636Z,8.85
2023-04-21T23:44:01.047Z,8.60
2023-04-21T23:46:27.656Z,8.95
2023-04-21T23:48:54.166Z,8.32
2023-04-21T23:51:21.512Z,9.15
2023-04-21T23:53:47.914Z,8.77
2023-04-21T23:56:14.352Z,8.40
2023-04-21T23:58:40.800Z,9.05
